Time;durP1;ratioP1;P1;durP2;ratioP2;P2;SDS_P1;SDS_P2;PMS_P1;PMS_P2;Temp;Humidity;BMP_temperature;BMP_pressure;BME280_temperature;BME280_humidity;BME280_pressure;Samples;Min_cycle;Max_cycle;Signal;HPM_P1;HPM_P2
2022/09/28 00:01:16;;;;;;;0.40;0.40;;;9.20;99.90;;;;;;5052763;28;20431;-68
2022/09/28 00:04:05;;;;;;;0.40;0.40;;;9.30;99.90;;;;;;5054725;28;20424;-68
2022/09/28 00:06:53;;;;;;;0.40;0.40;;;9.30;99.90;;;;;;5052598;28;20498;-67
2022/09/28 00:09:42;;;;;;;0.40;0.40;;;9.30;99.90;;;;;;5052731;28;20511;-68
2022/09/28 00:12:31;;;;;;;0.40;0.40;;;9.40;99.90;;;;;;5053164;28;20416;-68
2022/09/28 00:15:19;;;;;;;0.40;0.40;;;9.40;99.90;;;;;;5052717;28;20529;-68
2022/09/28 00:18:07;;;;;;;0.40;0.40;;;9.40;99.90;;;;;;5052146;28;20466;-68
2022/09/28 00:21:07;;;;;;;0.40;0.40;;;9.40;99.90;;;;;;5052695;28;20864;-68
2022/09/28 00:24:13;;;;;;;0.40;0.40;;;9.40;99.90;;;;;;5054112;28;20848;-68
2022/09/28 00:27:03;;;;;;;0.40;0.40;;;9.40;99.90;;;;;;5053954;28;20464;-67
2022/09/28 00:29:53;;;;;;;0.40;0.40;;;9.50;99.90;;;;;;5052689;28;20452;-67
2022/09/28 00:32:41;;;;;;;0.40;0.40;;;9.50;99.90;;;;;;5052523;28;20458;-68
2022/09/28 00:35:29;;;;;;;0.40;0.40;;;9.40;99.90;;;;;;5053172;28;20482;-68
2022/09/28 00:38:19;;;;;;;0.40;0.40;;;9.50;99.90;;;;;;5053246;28;20416;-68
2022/09/28 00:41:07;;;;;;;0.40;0.40;;;9.50;99.90;;;;;;5053278;28;20420;-68
2022/09/28 00:44:29;;;;;;;0.40;0.40;;;9.40;99.90;;;;;;5053489;28;20424;-68
2022/09/28 00:47:26;;;;;;;0.40;0.40;;;9.40;99.90;;;;;;5054011;28;20463;-68
2022/09/28 00:50:22;;;;;;;0.40;0.40;;;9.50;99.90;;;;;;5052717;28;20428;-67
2022/09/28 00:53:14;;;;;;;0.40;0.40;;;9.50;99.90;;;;;;5054549;28;20513;-67
2022/09/28 00:56:06;;;;;;;0.40;0.40;;;9.50;99.90;;;;;;5053865;28;20447;-68
2022/09/28 00:58:54;;;;;;;0.40;0.40;;;9.50;99.90;;;;;;5035141;28;20409;-68
2022/09/28 01:01:42;;;;;;;0.40;0.40;;;9.40;99.90;;;;;;5033265;28;20926;-69
2022/09/28 01:04:32;;;;;;;0.40;0.40;;;9.40;99.90;;;;;;5033409;28;20433;-69
2022/09/28 01:07:21;;;;;;;0.40;0.40;;;9.40;99.90;;;;;;5034218;28;20467;-68
2022/09/28 01:10:09;;;;;;;0.40;0.40;;;9.40;99.90;;;;;;5032734;28;20508;-68
2022/09/28 01:12:58;;;;;;;0.40;0.40;;;9.40;99.90;;;;;;5032699;28;20472;-68
2022/09/28 01:15:56;;;;;;;0.40;0.40;;;9.40;99.90;;;;;;5031899;28;20459;-68
2022/09/28 01:18:54;;;;;;;0.40;0.40;;;9.40;99.90;;;;;;5034495;28;20456;-67
2022/09/28 01:21:52;;;;;;;0.40;0.40;;;9.40;99.90;;;;;;5037057;28;21027;-69
2022/09/28 01:24:43;;;;;;;0.40;0.40;;;9.40;99.90;;;;;;5035637;28;20444;-67
2022/09/28 01:27:37;;;;;;;0.40;0.40;;;9.40;99.90;;;;;;5035469;28;20451;-68
2022/09/28 01:30:26;;;;;;;0.40;0.40;;;9.40;99.90;;;;;;5035725;28;20963;-69
2022/09/28 01:33:20;;;;;;;0.40;0.40;;;9.30;99.90;;;;;;5035513;28;20538;-68
2022/09/28 01:36:12;;;;;;;0.40;0.40;;;9.30;99.90;;;;;;5036425;28;20539;-68
2022/09/28 01:39:05;;;;;;;0.40;0.40;;;9.30;99.90;;;;;;5035545;28;20428;-68
2022/09/28 01:42:00;;;;;;;0.40;0.40;;;9.30;99.90;;;;;;5035224;28;20788;-69
2022/09/28 01:44:52;;;;;;;0.40;0.40;;;9.30;99.90;;;;;;5036524;28;20508;-69
2022/09/28 01:47:40;;;;;;;0.40;0.40;;;9.30;99.90;;;;;;5035656;28;20937;-68
2022/09/28 01:50:35;;;;;;;0.40;0.40;;;9.30;99.90;;;;;;5035612;28;20520;-68
2022/09/28 01:53:28;;;;;;;0.50;0.50;;;9.30;99.90;;;;;;5035505;28;20510;-69
2022/09/28 01:56:20;;;;;;;0.40;0.40;;;9.30;99.90;;;;;;5040623;28;21011;-69
2022/09/28 01:59:12;;;;;;;0.47;0.47;;;9.40;99.90;;;;;;5051617;28;20428;-68
2022/09/28 02:02:05;;;;;;;0.40;0.40;;;9.40;99.90;;;;;;5053053;28;20420;-68
2022/09/28 02:04:58;;;;;;;0.40;0.40;;;9.40;99.90;;;;;;5055284;28;20424;-69
2022/09/28 02:07:52;;;;;;;0.40;0.40;;;9.50;99.90;;;;;;5056449;28;20423;-68
2022/09/28 02:10:44;;;;;;;0.40;0.40;;;9.50;99.90;;;;;;5054471;28;20474;-68
2022/09/28 02:13:35;;;;;;;0.40;0.40;;;9.50;99.90;;;;;;5056211;28;20424;-68
2022/09/28 02:16:30;;;;;;;0.40;0.40;;;9.50;99.90;;;;;;5055561;28;20444;-68
2022/09/28 02:19:23;;;;;;;0.50;0.50;;;9.40;99.90;;;;;;5054431;28;20420;-68
2022/09/28 02:22:22;;;;;;;0.40;0.40;;;9.30;99.90;;;;;;5056358;28;20835;-68
2022/09/28 02:25:13;;;;;;;0.40;0.40;;;9.20;99.90;;;;;;5055385;28;20456;-68
2022/09/28 02:28:04;;;;;;;0.40;0.40;;;9.10;99.90;;;;;;5055819;28;20424;-68
2022/09/28 02:30:52;;;;;;;0.50;0.50;;;9.10;99.90;;;;;;5053019;28;20467;-68
2022/09/28 02:33:43;;;;;;;0.40;0.40;;;9.00;99.90;;;;;;5053851;28;20507;-69
2022/09/28 02:36:33;;;;;;;0.40;0.40;;;8.90;99.90;;;;;;5053643;28;20444;-67
2022/09/28 02:39:22;;;;;;;0.50;0.50;;;8.90;99.90;;;;;;5053891;28;20428;-69
2022/09/28 02:42:20;;;;;;;0.40;0.40;;;8.90;99.90;;;;;;5055745;28;20895;-68
2022/09/28 02:45:16;;;;;;;0.40;0.40;;;8.90;99.90;;;;;;5055536;28;20538;-68
2022/09/28 02:48:16;;;;;;;0.40;0.40;;;9.00;99.90;;;;;;5055471;28;20435;-69
2022/09/28 02:51:30;;;;;;;0.40;0.40;;;9.00;99.90;;;;;;5054691;28;20858;-67
2022/09/28 02:54:33;;;;;;;0.40;0.40;;;9.00;99.90;;;;;;5054115;28;20800;-69
2022/09/28 02:57:35;;;;;;;0.50;0.50;;;9.10;99.90;;;;;;5046892;28;20449;-68
2022/09/28 03:00:24;;;;;;;0.40;0.40;;;9.10;99.90;;;;;;5034505;28;20495;-68
2022/09/28 03:03:18;;;;;;;0.40;0.40;;;9.10;99.90;;;;;;5034869;28;20426;-69
2022/09/28 03:06:11;;;;;;;0.40;0.40;;;9.10;99.90;;;;;;5034862;28;20996;-69
2022/09/28 03:09:04;;;;;;;0.40;0.40;;;9.10;99.90;;;;;;5034800;28;20425;-69
2022/09/28 03:11:58;;;;;;;0.40;0.40;;;9.10;99.90;;;;;;5034998;28;20457;-68
2022/09/28 03:14:46;;;;;;;0.40;0.40;;;9.10;99.90;;;;;;5034837;28;20471;-69
2022/09/28 03:17:34;;;;;;;0.50;0.50;;;9.20;99.90;;;;;;5033923;28;20471;-68
2022/09/28 03:20:22;;;;;;;0.40;0.40;;;9.10;99.90;;;;;;5034240;28;20433;-71
2022/09/28 03:23:10;;;;;;;0.40;0.40;;;9.00;99.90;;;;;;5033881;28;20425;-69
2022/09/28 03:26:15;;;;;;;0.40;0.40;;;8.90;99.90;;;;;;5034471;28;20464;-68
2022/09/28 03:29:04;;;;;;;0.40;0.40;;;8.70;99.90;;;;;;5034337;28;20491;-68
2022/09/28 03:31:52;;;;;;;0.40;0.40;;;8.60;99.90;;;;;;5034330;28;20543;-68
2022/09/28 03:34:41;;;;;;;0.40;0.40;;;8.50;99.90;;;;;;5033868;28;20479;-68
2022/09/28 03:37:29;;;;;;;0.40;0.40;;;8.40;99.90;;;;;;5033408;28;20511;-68
2022/09/28 03:40:17;;;;;;;0.50;0.50;;;8.20;99.90;;;;;;5033038;28;20424;-68
2022/09/28 03:43:05;;;;;;;0.40;0.40;;;8.10;99.90;;;;;;5031617;28;20938;-68
2022/09/28 03:45:56;;;;;;;0.50;0.50;;;8.00;99.90;;;;;;5032564;28;20465;-68
2022/09/28 03:48:44;;;;;;;0.50;0.50;;;8.00;99.90;;;;;;5032176;28;20952;-68
2022/09/28 03:51:32;;;;;;;0.40;0.40;;;8.00;99.90;;;;;;5033313;28;20433;-68
2022/09/28 03:54:21;;;;;;;0.40;0.40;;;7.90;99.90;;;;;;5032495;28;20429;-68
2022/09/28 03:57:09;;;;;;;0.40;0.40;;;7.80;99.90;;;;;;5040138;28;20492;-68
2022/09/28 03:59:57;;;;;;;0.40;0.40;;;7.80;99.90;;;;;;5032891;28;20440;-67
2022/09/28 04:02:46;;;;;;;0.50;0.50;;;7.70;99.90;;;;;;5033145;28;20848;-68
2022/09/28 04:05:34;;;;;;;0.40;0.40;;;7.60;99.90;;;;;;5052682;28;20522;-69
2022/09/28 04:08:22;;;;;;;0.40;0.40;;;7.60;99.90;;;;;;5051133;28;20421;-68
2022/09/28 04:11:10;;;;;;;0.50;0.50;;;7.60;99.90;;;;;;5050813;28;20447;-67
2022/09/28 04:13:58;;;;;;;0.40;0.40;;;7.60;99.90;;;;;;5052129;28;20471;-68
2022/09/28 04:16:47;;;;;;;0.40;0.40;;;7.70;99.90;;;;;;5052789;28;21018;-68
2022/09/28 04:19:37;;;;;;;0.40;0.40;;;7.70;99.90;;;;;;5053070;28;20846;-68
2022/09/28 04:22:25;;;;;;;0.40;0.40;;;7.90;99.90;;;;;;5052895;28;20424;-68
2022/09/28 04:25:13;;;;;;;0.40;0.40;;;8.00;99.90;;;;;;5053357;28;20534;-68
2022/09/28 04:31:09;;;;;;;0.40;0.40;;;8.20;99.90;;;;;;5053645;28;20791;-68
2022/09/28 04:33:58;;;;;;;0.40;0.40;;;8.30;99.90;;;;;;5052589;28;20479;-68
2022/09/28 04:36:48;;;;;;;0.40;0.40;;;8.40;99.90;;;;;;5053173;28;20452;-67
2022/09/28 04:39:36;;;;;;;0.40;0.40;;;8.40;99.90;;;;;;5052436;28;20424;-68
2022/09/28 04:42:25;;;;;;;0.40;0.40;;;8.40;99.90;;;;;;5052706;28;21023;-68
2022/09/28 04:45:13;;;;;;;0.40;0.40;;;8.40;99.90;;;;;;5051915;28;20451;-67
2022/09/28 04:48:01;;;;;;;0.40;0.40;;;8.50;99.90;;;;;;5053069;28;20432;-68
2022/09/28 04:50:53;;;;;;;0.40;0.40;;;8.50;99.90;;;;;;5051839;28;20920;-68
2022/09/28 04:53:43;;;;;;;0.40;0.40;;;8.60;99.90;;;;;;5053628;28;20994;-68
2022/09/28 04:56:31;;;;;;;0.40;0.40;;;8.60;99.90;;;;;;5055467;28;20440;-68
2022/09/28 04:59:19;;;;;;;0.40;0.40;;;8.60;99.90;;;;;;5036769;28;20511;-68
2022/09/28 05:02:07;;;;;;;0.40;0.40;;;8.60;99.90;;;;;;5037362;28;20821;-68
2022/09/28 05:04:57;;;;;;;0.70;0.70;;;8.60;99.90;;;;;;5037890;28;20428;-68
2022/09/28 05:07:45;;;;;;;0.40;0.40;;;8.70;99.90;;;;;;5037430;28;20420;-68
2022/09/28 05:10:35;;;;;;;0.40;0.40;;;8.70;99.90;;;;;;5037778;28;20520;-68
2022/09/28 05:13:23;;;;;;;0.50;0.50;;;8.70;99.90;;;;;;5037381;28;20989;-69
2022/09/28 05:16:12;;;;;;;0.40;0.40;;;8.80;99.90;;;;;;5037310;28;20540;-68
2022/09/28 05:19:00;;;;;;;0.40;0.40;;;8.80;99.90;;;;;;5036483;28;20806;-69
2022/09/28 05:21:49;;;;;;;0.40;0.40;;;8.80;99.90;;;;;;5037552;28;20443;-68
2022/09/28 05:24:37;;;;;;;0.40;0.40;;;8.90;99.90;;;;;;5037936;28;20420;-68
2022/09/28 05:27:27;;;;;;;0.40;0.40;;;8.90;99.90;;;;;;5037508;28;20425;-67
2022/09/28 05:30:15;;;;;;;0.50;0.50;;;8.90;99.90;;;;;;5037131;28;20798;-68
2022/09/28 05:33:04;;;;;;;0.40;0.40;;;8.90;99.90;;;;;;5036326;28;20457;-67
2022/09/28 05:35:52;;;;;;;0.40;0.40;;;8.90;99.90;;;;;;5036314;28;20449;-68
2022/09/28 05:38:46;;;;;;;0.40;0.40;;;9.00;99.90;;;;;;5036214;28;20433;-69
2022/09/28 05:41:34;;;;;;;0.40;0.40;;;9.00;99.90;;;;;;5036975;28;20461;-68
2022/09/28 05:44:23;;;;;;;0.40;0.40;;;8.90;99.90;;;;;;5037380;28;20445;-69
2022/09/28 05:47:12;;;;;;;0.40;0.40;;;9.00;99.90;;;;;;5036658;28;20511;-68
2022/09/28 05:50:00;;;;;;;0.40;0.40;;;9.00;99.90;;;;;;5037004;28;20491;-68
2022/09/28 05:52:56;;;;;;;0.40;0.40;;;9.20;99.90;;;;;;5036627;28;20441;-68
2022/09/28 05:55:44;;;;;;;0.40;0.40;;;9.20;99.90;;;;;;5037747;28;20579;-68
2022/09/28 05:58:32;;;;;;;0.40;0.40;;;9.40;99.90;;;;;;5055403;28;20777;-68
2022/09/28 06:01:23;;;;;;;0.50;0.50;;;9.50;99.90;;;;;;5048783;28;20437;-68
2022/09/28 06:04:11;;;;;;;0.40;0.40;;;9.50;99.90;;;;;;5037393;28;20421;-69
2022/09/28 06:06:59;;;;;;;0.40;0.40;;;9.50;99.90;;;;;;5045163;28;20443;-68
2022/09/28 06:09:47;;;;;;;0.50;0.50;;;9.40;99.90;;;;;;5048953;28;20953;-68
2022/09/28 06:12:36;;;;;;;0.40;0.40;;;9.30;99.90;;;;;;5040576;28;20961;-69
2022/09/28 06:15:26;;;;;;;0.40;0.40;;;9.20;99.90;;;;;;5043907;28;20976;-68
2022/09/28 06:18:15;;;;;;;0.40;0.40;;;9.10;99.90;;;;;;5052520;28;20450;-68
2022/09/28 06:21:04;;;;;;;0.40;0.40;;;8.90;99.90;;;;;;5054581;28;20421;-68
2022/09/28 06:23:52;;;;;;;0.50;0.50;;;8.90;99.90;;;;;;5052416;28;20482;-68
2022/09/28 06:26:41;;;;;;;0.40;0.40;;;8.90;99.90;;;;;;5038558;28;21069;-69
2022/09/28 06:29:29;;;;;;;0.50;0.50;;;8.90;99.90;;;;;;5050023;28;20471;-68
2022/09/28 06:32:17;;;;;;;0.40;0.40;;;9.00;99.90;;;;;;5038241;28;20860;-68
2022/09/28 06:35:08;;;;;;;0.40;0.40;;;9.00;99.90;;;;;;5054046;28;20475;-67
2022/09/28 06:37:56;;;;;;;0.40;0.40;;;9.20;99.90;;;;;;5056364;28;20432;-70
2022/09/28 06:40:45;;;;;;;0.40;0.40;;;9.20;99.90;;;;;;5055497;28;21091;-67
2022/09/28 06:43:33;;;;;;;0.40;0.40;;;9.20;99.90;;;;;;5054631;28;20844;-67
2022/09/28 06:46:22;;;;;;;0.40;0.40;;;9.20;99.90;;;;;;5043004;28;20477;-71
2022/09/28 06:49:10;;;;;;;0.40;0.40;;;9.10;99.90;;;;;;5035209;28;20440;-69
2022/09/28 06:52:04;;;;;;;0.40;0.40;;;9.10;99.90;;;;;;5035373;28;21007;-67
2022/09/28 06:54:52;;;;;;;0.40;0.40;;;9.10;99.90;;;;;;5034783;28;20603;-68
2022/09/28 06:57:41;;;;;;;0.50;0.50;;;9.10;99.90;;;;;;5035764;28;20838;-69
2022/09/28 07:00:31;;;;;;;0.40;0.40;;;9.10;99.90;;;;;;5036625;28;20487;-69
2022/09/28 07:03:21;;;;;;;0.40;0.40;;;9.20;99.90;;;;;;5045732;28;20460;-69
2022/09/28 07:06:12;;;;;;;0.40;0.40;;;9.20;99.90;;;;;;5056157;28;20448;-69
2022/09/28 07:09:05;;;;;;;0.40;0.40;;;9.20;99.90;;;;;;5053873;28;20436;-69
2022/09/28 07:12:13;;;;;;;0.50;0.50;;;9.30;99.90;;;;;;5054164;28;20554;-68
2022/09/28 07:15:01;;;;;;;0.40;0.40;;;9.40;99.90;;;;;;5055938;28;20546;-68
2022/09/28 07:17:49;;;;;;;0.40;0.40;;;9.40;99.90;;;;;;5054104;28;20416;-68
2022/09/28 07:20:47;;;;;;;0.40;0.40;;;9.40;99.90;;;;;;5033541;28;20421;-69
2022/09/28 07:23:41;;;;;;;0.40;0.40;;;9.50;99.90;;;;;;5035620;28;20428;-68
2022/09/28 07:26:44;;;;;;;0.50;0.50;;;9.50;99.90;;;;;;5034455;28;20614;-68
2022/09/28 07:29:32;;;;;;;0.40;0.40;;;9.60;99.90;;;;;;5033505;28;20807;-69
2022/09/28 07:32:21;;;;;;;0.47;0.47;;;9.70;99.90;;;;;;5034931;28;20455;-68
2022/09/28 07:35:09;;;;;;;0.40;0.40;;;9.80;99.90;;;;;;5045681;28;20483;-68
2022/09/28 07:38:00;;;;;;;0.40;0.40;;;9.90;99.90;;;;;;5052782;28;20782;-67
2022/09/28 07:43:55;;;;;;;0.40;0.40;;;10.20;99.90;;;;;;5044416;28;20432;-67
2022/09/28 07:46:43;;;;;;;0.40;0.40;;;10.40;99.90;;;;;;5034643;28;20499;-66
2022/09/28 07:49:31;;;;;;;0.50;0.50;;;10.50;99.90;;;;;;5033171;28;20849;-66
2022/09/28 07:52:22;;;;;;;0.50;0.50;;;10.70;99.90;;;;;;5034833;28;21061;-67
2022/09/28 07:55:10;;;;;;;0.40;0.40;;;10.80;99.90;;;;;;5032807;28;20469;-68
2022/09/28 07:57:59;;;;;;;0.40;0.40;;;11.00;99.90;;;;;;5033016;28;20425;-67
2022/09/28 08:00:50;;;;;;;0.40;0.40;;;11.20;99.90;;;;;;5036466;28;20434;-68
2022/09/28 08:03:39;;;;;;;0.40;0.40;;;11.30;99.90;;;;;;5035419;28;20958;-67
2022/09/28 08:06:27;;;;;;;0.50;0.50;;;11.50;99.90;;;;;;5054037;28;20520;-69
2022/09/28 08:09:15;;;;;;;0.50;0.50;;;11.50;99.90;;;;;;5053505;28;20420;-68
2022/09/28 08:12:04;;;;;;;0.40;0.40;;;11.70;99.90;;;;;;5052538;28;20462;-68
2022/09/28 08:14:52;;;;;;;0.40;0.40;;;11.70;99.90;;;;;;5053004;28;20527;-67
2022/09/28 08:17:46;;;;;;;0.40;0.40;;;11.70;99.90;;;;;;5043369;28;20464;-68
2022/09/28 08:23:40;;;;;;;0.40;0.40;;;12.00;99.90;;;;;;5046085;28;20506;-68
2022/09/28 08:26:28;;;;;;;0.40;0.40;;;12.10;99.90;;;;;;5051493;28;20796;-68
2022/09/28 08:29:16;;;;;;;0.50;0.50;;;12.20;99.90;;;;;;5047590;28;20416;-68
2022/09/28 08:32:07;;;;;;;0.40;0.40;;;12.40;99.90;;;;;;5052972;28;20437;-67
2022/09/28 08:34:56;;;;;;;0.40;0.40;;;12.50;99.90;;;;;;5052076;28;20460;-69
2022/09/28 08:37:51;;;;;;;1.23;1.23;;;12.60;99.90;;;;;;5054995;28;20420;-69
2022/09/28 08:40:49;;;;;;;0.40;0.40;;;12.70;99.90;;;;;;5041196;28;20417;-68
2022/09/28 08:44:00;;;;;;;0.40;0.40;;;12.80;99.90;;;;;;5040392;28;20520;-69
2022/09/28 08:46:51;;;;;;;0.40;0.40;;;13.10;99.90;;;;;;5046464;28;20459;-68
2022/09/28 08:49:43;;;;;;;0.50;0.50;;;13.20;99.90;;;;;;5059230;28;20424;-68
2022/09/28 08:52:36;;;;;;;0.40;0.40;;;13.30;99.90;;;;;;5060125;28;20442;-68
2022/09/28 08:55:29;;;;;;;0.40;0.40;;;13.50;99.90;;;;;;5060788;28;20601;-68
2022/09/28 08:58:23;;;;;;;0.50;0.50;;;13.60;99.90;;;;;;5060379;28;20867;-67
2022/09/28 09:01:17;;;;;;;0.40;0.40;;;13.50;99.90;;;;;;5053961;28;20845;-69
2022/09/28 09:04:07;;;;;;;0.40;0.40;;;13.50;99.90;;;;;;5052542;28;20429;-69
2022/09/28 09:07:12;;;;;;;0.40;0.40;;;13.60;99.90;;;;;;5054867;28;20456;-68
2022/09/28 09:10:28;;;;;;;0.40;0.40;;;13.60;99.90;;;;;;5041677;28;20431;-70
2022/09/28 09:13:41;;;;;;;0.40;0.40;;;13.80;99.90;;;;;;5039882;28;20420;-68
2022/09/28 09:16:47;;;;;;;0.40;0.40;;;13.80;99.90;;;;;;5041759;28;20528;-68
2022/09/28 09:19:52;;;;;;;0.40;0.40;;;13.80;99.90;;;;;;5055521;28;20428;-69
2022/09/28 09:22:57;;;;;;;0.40;0.40;;;13.90;99.90;;;;;;5061254;28;20428;-69
2022/09/28 09:26:02;;;;;;;0.40;0.40;;;13.90;99.90;;;;;;5053020;28;20476;-68
2022/09/28 09:29:12;;;;;;;0.40;0.40;;;13.90;99.90;;;;;;5041672;28;20964;-70
2022/09/28 09:32:55;;;;;;;0.40;0.40;;;13.80;99.90;;;;;;5042119;28;20528;-68
2022/09/28 09:36:09;;;;;;;0.40;0.40;;;13.80;99.90;;;;;;5052915;28;20541;-68
2022/09/28 09:39:16;;;;;;;0.40;0.40;;;13.80;99.90;;;;;;5052198;28;20455;-68
2022/09/28 09:42:31;;;;;;;0.40;0.40;;;13.80;99.90;;;;;;5038519;28;20935;-69
2022/09/28 09:45:42;;;;;;;0.40;0.40;;;13.80;99.90;;;;;;5038409;28;20578;-68
2022/09/28 09:48:52;;;;;;;0.40;0.40;;;13.80;99.90;;;;;;5038407;28;20436;-67
2022/09/28 09:51:53;;;;;;;0.40;0.40;;;13.90;99.90;;;;;;5052316;28;20546;-68
2022/09/28 09:54:48;;;;;;;0.40;0.40;;;13.90;99.90;;;;;;5057302;28;20467;-68
2022/09/28 09:57:48;;;;;;;0.40;0.40;;;14.00;99.90;;;;;;5046168;28;20440;-66
2022/09/28 10:00:44;;;;;;;0.40;0.40;;;14.00;99.90;;;;;;5056340;28;20905;-69
2022/09/28 10:03:43;;;;;;;0.40;0.40;;;14.40;99.90;;;;;;5042476;28;20431;-69
2022/09/28 10:06:40;;;;;;;0.40;0.40;;;14.70;99.90;;;;;;5034430;28;20456;-70
2022/09/28 10:09:38;;;;;;;0.40;0.40;;;15.10;99.90;;;;;;5035102;28;20964;-70
2022/09/28 10:12:30;;;;;;;0.50;0.50;;;15.50;99.90;;;;;;5042172;28;20594;-71
2022/09/28 10:15:25;;;;;;;0.50;0.50;;;15.60;99.90;;;;;;5034221;28;20229;-72
2022/09/28 10:18:22;;;;;;;0.40;0.40;;;15.50;99.90;;;;;;5034101;28;20202;-71
2022/09/28 10:21:18;;;;;;;0.40;0.40;;;15.30;99.90;;;;;;5033423;28;20202;-70
2022/09/28 10:24:19;;;;;;;0.40;0.40;;;15.30;99.90;;;;;;5049948;28;20216;-73
2022/09/28 10:27:23;;;;;;;0.40;0.40;;;15.00;99.90;;;;;;5051618;28;20622;-72
2022/09/28 10:30:19;;;;;;;0.40;0.40;;;15.00;99.90;;;;;;5053238;28;20271;-69
2022/09/28 10:33:31;;;;;;;0.50;0.50;;;14.80;99.90;;;;;;5052488;28;20202;-69
2022/09/28 10:36:26;;;;;;;0.40;0.40;;;14.50;99.90;;;;;;5054147;28;20662;-68
2022/09/28 10:39:35;;;;;;;0.40;0.40;;;14.30;99.90;;;;;;5059978;28;20256;-68
2022/09/28 10:42:32;;;;;;;0.40;0.40;;;14.00;99.90;;;;;;5070438;28;20189;-68
2022/09/28 10:45:23;;;;;;;0.40;0.40;;;14.00;99.90;;;;;;5056545;28;20575;-69
2022/09/28 10:48:22;;;;;;;0.40;0.40;;;13.90;99.90;;;;;;5052990;28;20425;-68
2022/09/28 10:51:16;;;;;;;1.33;1.23;;;13.70;99.90;;;;;;5059392;28;20452;-68
2022/09/28 10:54:16;;;;;;;0.40;0.40;;;13.70;99.90;;;;;;5055552;28;20550;-68
2022/09/28 10:57:28;;;;;;;0.40;0.40;;;13.70;99.90;;;;;;5066480;28;20465;-68
2022/09/28 11:00:42;;;;;;;0.50;0.50;;;13.60;99.90;;;;;;5067310;28;20432;-68
2022/09/28 11:03:54;;;;;;;0.40;0.40;;;13.40;99.90;;;;;;5050060;28;21054;-69
2022/09/28 11:06:45;;;;;;;0.40;0.40;;;13.40;99.90;;;;;;5037816;28;20473;-68
2022/09/28 11:09:41;;;;;;;0.40;0.40;;;13.50;99.90;;;;;;5047737;28;20443;-68
2022/09/28 11:12:44;;;;;;;0.40;0.40;;;13.60;99.90;;;;;;5057216;28;20435;-69
2022/09/28 11:15:36;;;;;;;0.90;0.90;;;13.80;99.90;;;;;;5055807;28;20257;-68
2022/09/28 11:18:30;;;;;;;0.40;0.40;;;13.90;99.90;;;;;;5054978;28;20460;-70
2022/09/28 11:21:31;;;;;;;0.40;0.40;;;13.80;99.90;;;;;;5055168;28;20424;-69
2022/09/28 11:24:25;;;;;;;0.40;0.40;;;13.90;99.90;;;;;;5054276;28;20799;-69
2022/09/28 11:27:21;;;;;;;0.40;0.40;;;14.00;99.90;;;;;;5055656;28;20417;-69
2022/09/28 11:30:25;;;;;;;0.40;0.40;;;14.00;99.90;;;;;;5054129;28;20429;-69
2022/09/28 11:33:19;;;;;;;0.40;0.40;;;13.90;99.90;;;;;;5054852;28;20939;-68
2022/09/28 11:36:20;;;;;;;0.40;0.40;;;13.80;99.90;;;;;;5054266;28;20462;-68
2022/09/28 11:39:16;;;;;;;0.40;0.40;;;13.70;99.90;;;;;;5055887;28;20428;-69
2022/09/28 11:42:20;;;;;;;0.40;0.40;;;13.40;99.90;;;;;;5055237;28;20483;-68
2022/09/28 11:45:29;;;;;;;0.40;0.40;;;13.50;99.90;;;;;;5054583;28;20432;-70
2022/09/28 11:48:29;;;;;;;0.40;0.40;;;13.50;99.90;;;;;;5038228;28;20436;-67
2022/09/28 11:51:26;;;;;;;0.40;0.40;;;13.60;99.90;;;;;;5043159;28;21003;-68
2022/09/28 11:54:25;;;;;;;0.40;0.40;;;13.50;99.90;;;;;;5042865;28;20421;-69
2022/09/28 11:57:21;;;;;;;0.40;0.40;;;13.60;99.90;;;;;;5043337;28;20487;-68
2022/09/28 12:00:23;;;;;;;0.40;0.40;;;13.70;99.90;;;;;;5045781;28;20429;-67
2022/09/28 12:03:21;;;;;;;0.40;0.40;;;13.80;99.90;;;;;;5033911;28;20479;-68
2022/09/28 12:06:18;;;;;;;0.40;0.40;;;14.00;99.90;;;;;;5042567;28;20526;-69
2022/09/28 12:09:16;;;;;;;0.40;0.40;;;14.20;99.90;;;;;;5045361;28;20428;-68
2022/09/28 12:12:22;;;;;;;1.27;1.27;;;14.10;99.90;;;;;;5046529;28;20415;-68
2022/09/28 12:15:19;;;;;;;0.40;0.40;;;14.20;99.90;;;;;;5041974;28;20447;-69
2022/09/28 12:18:19;;;;;;;0.40;0.40;;;14.30;99.90;;;;;;5043019;28;20435;-68
2022/09/28 12:21:31;;;;;;;0.40;0.40;;;14.30;99.90;;;;;;5043658;28;20427;-69
2022/09/28 12:24:30;;;;;;;0.57;0.57;;;14.10;99.90;;;;;;5043618;28;20431;-67
2022/09/28 12:27:34;;;;;;;0.40;0.40;;;14.00;99.90;;;;;;5045341;28;20789;-69
2022/09/28 12:30:34;;;;;;;0.40;0.40;;;14.00;99.90;;;;;;5050127;28;20499;-68
2022/09/28 12:33:28;;;;;;;0.40;0.40;;;14.10;99.90;;;;;;5044484;28;20455;-70
2022/09/28 12:36:40;;;;;;;0.50;0.50;;;14.40;99.90;;;;;;5044263;28;20491;-69
2022/09/28 12:39:46;;;;;;;0.40;0.40;;;14.40;99.90;;;;;;5044123;28;20936;-68
2022/09/28 12:43:06;;;;;;;0.73;0.73;;;14.40;99.90;;;;;;5042005;28;20514;-69
2022/09/28 12:46:16;;;;;;;1.03;1.03;;;14.40;99.90;;;;;;5042252;28;20643;-69
2022/09/28 12:49:44;;;;;;;0.40;0.40;;;14.10;99.90;;;;;;5050727;28;20507;-68
2022/09/28 12:53:07;;;;;;;0.40;0.40;;;14.00;99.90;;;;;;5038717;28;20437;-69
2022/09/28 12:56:03;;;;;;;0.40;0.40;;;14.00;99.90;;;;;;5044259;28;20448;-67
2022/09/28 12:59:08;;;;;;;0.40;0.40;;;14.00;99.90;;;;;;5044236;28;20413;-68
2022/09/28 13:02:37;;;;;;;0.40;0.40;;;14.20;99.90;;;;;;5042606;28;20417;-68
2022/09/28 13:05:47;;;;;;;0.40;0.40;;;14.30;99.90;;;;;;5040870;28;20830;-68
2022/09/28 13:08:50;;;;;;;0.40;0.40;;;14.30;99.90;;;;;;5043563;28;20424;-70
2022/09/28 13:11:50;;;;;;;0.40;0.40;;;14.60;99.90;;;;;;5041377;28;20435;-70
2022/09/28 13:15:31;;;;;;;0.40;0.40;;;14.70;99.90;;;;;;5046489;28;20444;-69
2022/09/28 13:18:32;;;;;;;0.40;0.40;;;14.80;99.90;;;;;;5046120;28;20232;-71
2022/09/28 13:21:32;;;;;;;0.40;0.40;;;14.90;99.90;;;;;;5043572;28;20198;-69
2022/09/28 13:24:37;;;;;;;1.63;1.53;;;14.90;99.90;;;;;;5048774;28;20193;-70
2022/09/28 13:27:33;;;;;;;0.40;0.40;;;14.70;99.90;;;;;;5048047;28;20420;-69
2022/09/28 13:30:26;;;;;;;0.70;0.70;;;14.60;99.90;;;;;;5044809;28;20273;-69
2022/09/28 13:33:28;;;;;;;0.40;0.40;;;14.40;99.90;;;;;;5046743;28;20491;-67
2022/09/28 13:36:38;;;;;;;0.40;0.40;;;14.10;99.90;;;;;;5045459;28;20446;-68
2022/09/28 13:39:51;;;;;;;0.40;0.40;;;13.80;99.90;;;;;;5047772;28;20421;-67
2022/09/28 13:43:18;;;;;;;0.40;0.40;;;13.60;99.90;;;;;;5043968;28;20578;-67
2022/09/28 13:46:15;;;;;;;0.40;0.40;;;13.40;99.90;;;;;;5047847;28;20952;-68
2022/09/28 13:49:22;;;;;;;6.23;2.00;;;13.40;99.90;;;;;;5057957;28;20416;-68
2022/09/28 13:52:36;;;;;;;0.40;0.40;;;13.40;99.90;;;;;;5056245;28;20424;-68
2022/09/28 13:55:36;;;;;;;0.40;0.40;;;13.50;99.90;;;;;;5049569;28;20459;-68
2022/09/28 13:58:28;;;;;;;0.40;0.40;;;13.80;99.90;;;;;;5047952;28;20870;-69
2022/09/28 14:01:23;;;;;;;8.63;1.00;;;13.90;99.90;;;;;;5049948;28;20417;-67
2022/09/28 14:04:21;;;;;;;0.40;0.40;;;13.80;99.90;;;;;;5047536;28;20914;-68
2022/09/28 14:07:20;;;;;;;0.40;0.40;;;14.00;99.90;;;;;;5048622;28;20535;-70
2022/09/28 14:10:24;;;;;;;0.40;0.40;;;14.30;99.90;;;;;;5044137;28;20969;-69
2022/09/28 14:14:00;;;;;;;0.40;0.40;;;14.60;99.90;;;;;;5045554;28;20436;-69
2022/09/28 14:17:21;;;;;;;0.40;0.40;;;14.70;99.90;;;;;;4993063;28;20473;-68
2022/09/28 14:20:25;;;;;;;0.40;0.40;;;14.50;99.90;;;;;;5050641;28;20471;-69
2022/09/28 14:23:53;;;;;;;0.40;0.40;;;14.50;99.90;;;;;;5053496;28;20520;-68
2022/09/28 14:27:08;;;;;;;0.40;0.40;;;14.70;99.90;;;;;;5040157;28;20645;-68
2022/09/28 14:30:07;;;;;;;0.40;0.40;;;14.70;99.90;;;;;;5053847;28;20194;-69
2022/09/28 14:32:57;;;;;;;0.40;0.40;;;15.00;99.90;;;;;;5053344;28;20498;-69
2022/09/28 14:35:49;;;;;;;0.40;0.40;;;15.30;99.90;;;;;;5053602;28;20458;-67
2022/09/28 14:41:52;;;;;;;0.40;0.40;;;14.80;99.90;;;;;;5054171;28;20701;-69
2022/09/28 14:45:18;;;;;;;0.50;0.50;;;14.60;99.90;;;;;;5054481;28;20517;-68
2022/09/28 14:48:20;;;;;;;0.47;0.47;;;14.30;99.90;;;;;;5054922;28;20251;-68
2022/09/28 14:51:42;;;;;;;0.43;0.43;;;14.20;99.90;;;;;;5044237;28;20527;-67
2022/09/28 14:54:44;;;;;;;0.40;0.40;;;14.10;99.90;;;;;;5035911;28;20425;-68
2022/09/28 14:57:33;;;;;;;0.50;0.50;;;13.90;99.90;;;;;;5045705;28;20213;-68
2022/09/28 15:00:24;;;;;;;0.40;0.40;;;13.80;99.90;;;;;;5046462;28;20494;-68
2022/09/28 15:03:14;;;;;;;0.40;0.40;;;13.60;99.90;;;;;;5045062;28;20511;-68
2022/09/28 15:06:02;;;;;;;0.50;0.50;;;13.50;99.90;;;;;;5045794;28;20486;-68
2022/09/28 15:08:50;;;;;;;0.50;0.50;;;13.20;99.90;;;;;;5045960;28;20463;-69
2022/09/28 15:11:41;;;;;;;0.40;0.40;;;12.90;99.90;;;;;;5044522;28;20426;-69
2022/09/28 15:14:30;;;;;;;0.40;0.40;;;12.80;99.90;;;;;;5046953;28;21010;-69
2022/09/28 15:17:22;;;;;;;0.70;0.70;;;12.70;99.90;;;;;;5044412;28;20473;-69
2022/09/28 15:20:22;;;;;;;0.40;0.40;;;12.70;99.90;;;;;;5033217;28;20417;-69
2022/09/28 15:23:25;;;;;;;0.40;0.40;;;12.80;99.90;;;;;;5035246;28;20432;-68
2022/09/28 15:26:26;;;;;;;0.40;0.40;;;12.80;99.90;;;;;;5035066;28;20460;-67
2022/09/28 15:29:19;;;;;;;0.50;0.50;;;12.70;99.90;;;;;;5034526;28;20421;-68
2022/09/28 15:32:23;;;;;;;0.40;0.40;;;12.50;99.90;;;;;;5034698;28;20583;-69
2022/09/28 15:35:15;;;;;;;0.50;0.50;;;12.40;99.90;;;;;;5041912;28;20448;-67